createdAt,value
2023-03-22T00:01:45.504Z,36.30
2023-03-22T00:07:49.654Z,32.60
2023-03-22T00:13:51.852Z,36.40
2023-03-22T00:19:54.031Z,36.20
2023-03-22T00:25:56.494Z,36.40
2023-03-22T00:31:57.964Z,37.50
2023-03-22T00:38:13.404Z,33.70
2023-03-22T00:44:14.951Z,36.20
2023-03-22T00:50:19.637Z,34.40
2023-03-22T00:56:24.819Z,34.60
2023-03-22T01:02:34.347Z,39.20
2023-03-22T01:08:38.239Z,33.60
2023-03-22T01:14:40.161Z,29.50
2023-03-22T01:20:42.053Z,29.60
2023-03-22T01:26:46.180Z,43.70
2023-03-22T01:32:47.836Z,35.80
2023-03-22T01:38:49.888Z,35.90
2023-03-22T01:45:26.789Z,30.80
2023-03-22T01:51:28.474Z,37.20
2023-03-22T01:57:53.924Z,34.70
2023-03-22T02:04:33.298Z,30.10
2023-03-22T02:10:36.374Z,27.90
2023-03-22T02:16:50.724Z,34.00
2023-03-22T02:23:05.215Z,30.00
2023-03-22T02:29:34.871Z,31.10
2023-03-22T02:35:53.467Z,31.50
2023-03-22T02:42:14.122Z,32.50
2023-03-22T02:48:18.448Z,31.30
2023-03-22T02:54:45.302Z,26.90
2023-03-22T03:00:50.341Z,26.30
2023-03-22T03:06:58.330Z,27.50
2023-03-22T03:13:00.240Z,26.50
2023-03-22T03:19:15.777Z,25.00
2023-03-22T03:26:04.287Z,22.50
2023-03-22T03:32:19.340Z,20.80
2023-03-22T03:38:25.715Z,20.20
2023-03-22T03:50:43.231Z,21.60
2023-03-22T03:56:47.075Z,23.30
2023-03-22T04:02:48.936Z,22.90
2023-03-22T04:09:12.946Z,23.60
2023-03-22T04:15:17.598Z,22.30
2023-03-22T04:21:22.234Z,21.70
2023-03-22T04:27:35.195Z,22.40
2023-03-22T04:33:46.202Z,23.20
2023-03-22T04:39:59.856Z,24.30
2023-03-22T04:46:12.122Z,27.00
2023-03-22T04:52:18.444Z,26.00
2023-03-22T04:58:27.115Z,24.70
2023-03-22T05:04:28.685Z,22.80
2023-03-22T05:10:39.727Z,21.80
2023-03-22T05:16:41.565Z,21.70
2023-03-22T05:22:44.809Z,22.20
2023-03-22T05:28:46.844Z,22.50
2023-03-22T05:34:55.489Z,22.90
2023-03-22T05:41:02.951Z,22.90
2023-03-22T05:47:06.217Z,22.40
2023-03-22T05:53:11.188Z,22.00
2023-03-22T05:59:34.146Z,22.20
2023-03-22T06:05:36.780Z,22.80
2023-03-22T06:11:38.541Z,22.80
2023-03-22T06:17:41.693Z,21.70
2023-03-22T06:23:44.535Z,21.20
2023-03-22T06:29:50.073Z,22.00
2023-03-22T06:35:53.506Z,20.50
2023-03-22T06:42:02.761Z,22.40
2023-03-22T06:48:04.885Z,24.20
2023-03-22T06:54:12.661Z,22.40
2023-03-22T07:00:15.292Z,23.80
2023-03-22T07:06:16.875Z,22.50
2023-03-22T07:12:21.808Z,22.20
2023-03-22T07:18:24.806Z,21.70
2023-03-22T07:24:26.356Z,23.60
2023-03-22T07:30:28.366Z,23.20
2023-03-22T07:36:31.028Z,24.70
2023-03-22T07:42:33.939Z,24.30
2023-03-22T07:48:57.902Z,24.80
2023-03-22T07:55:18.168Z,22.70
2023-03-22T08:01:20.864Z,22.60
2023-03-22T08:07:36.923Z,21.00
2023-03-22T08:13:38.859Z,19.80
2023-03-22T08:19:43.125Z,19.80
2023-03-22T08:25:46.315Z,21.30
2023-03-22T08:31:48.303Z,18.80
2023-03-22T08:37:53.996Z,17.20
2023-03-22T08:43:56.858Z,17.80
2023-03-22T08:49:58.385Z,17.80
2023-03-22T08:56:09.383Z,18.70
2023-03-22T09:02:26.289Z,17.50
2023-03-22T09:08:29.270Z,16.20
2023-03-22T09:14:38.220Z,18.10
2023-03-22T09:20:40.673Z,17.90
2023-03-22T09:26:43.057Z,18.40
2023-03-22T09:32:44.731Z,18.20
2023-03-22T09:38:49.330Z,18.60
2023-03-22T09:44:52.030Z,19.80
2023-03-22T09:50:57.223Z,20.60
2023-03-22T09:57:02.353Z,19.70
2023-03-22T10:03:28.523Z,17.90
2023-03-22T10:09:48.667Z,16.80
2023-03-22T10:15:55.158Z,17.30
2023-03-22T10:21:57.493Z,16.70
2023-03-22T10:27:59.054Z,17.00
2023-03-22T10:34:05.537Z,15.80
2023-03-22T10:40:35.045Z,15.60
2023-03-22T10:46:38.869Z,14.70
2023-03-22T10:52:47.268Z,13.20
2023-03-22T10:58:49.986Z,13.40
2023-03-22T11:04:53.877Z,13.20
2023-03-22T11:10:59.645Z,12.70
2023-03-22T11:17:14.701Z,9.60
2023-03-22T11:23:17.327Z,10.30
2023-03-22T11:29:18.855Z,10.10
2023-03-22T11:41:48.430Z,7.90
2023-03-22T11:47:50.603Z,7.30
2023-03-22T11:53:56.509Z,7.30
2023-03-22T12:00:19.309Z,7.60
2023-03-22T12:06:27.481Z,6.00
2023-03-22T12:12:36.427Z,5.80
2023-03-22T12:18:44.311Z,5.70
2023-03-22T12:24:46.007Z,5.70
2023-03-22T12:30:50.850Z,6.10
2023-03-22T12:36:55.766Z,5.80
2023-03-22T12:43:20.765Z,5.40
2023-03-22T12:49:28.607Z,5.60
2023-03-22T12:55:33.199Z,5.80
2023-03-22T13:02:01.906Z,5.00
2023-03-22T13:08:04.961Z,4.30
2023-03-22T13:14:06.723Z,3.80
2023-03-22T13:20:11.548Z,4.40
2023-03-22T13:26:14.660Z,3.90
2023-03-22T13:32:53.335Z,4.70
2023-03-22T13:39:04.598Z,3.20
2023-03-22T13:45:32.693Z,4.50
2023-03-22T13:51:34.808Z,3.10
2023-03-22T13:57:58.274Z,3.00
2023-03-22T14:04:03.360Z,3.70
2023-03-22T14:10:44.624Z,3.30
2023-03-22T14:16:48.909Z,3.40
